Terminal Aerodrome Forecast
Issued by NWS Sterling, VA

Current Version | Previous Version | Graphics & Text | Print | Product List | Glossary On
Versions: 1 2 3 4 5 6 7 8 9 10 11 12
000
FTUS41 KLWX 171700
TAFMRB
TAF
KMRB 171720Z 1718/1818 18004KT P6SM BKN050
     FM172300 VRB03KT P6SM SCT050
     FM180600 00000KT 5SM BR BKN050
     FM181200 VRB03KT P6SM BKN050=

USA.gov is the U.S. government's official web portal to all federal, state and local government web resources and services.